createdAt,value
2022-10-11T00:01:27.424Z,99.90
2022-10-11T00:03:54.303Z,99.90
2022-10-11T00:06:23.219Z,99.90
2022-10-11T00:08:50.046Z,99.90
2022-10-11T00:11:16.763Z,99.90
2022-10-11T00:13:43.460Z,99.90
2022-10-11T00:16:11.115Z,99.90
2022-10-11T00:18:38.073Z,99.90
2022-10-11T00:21:06.735Z,99.90
2022-10-11T00:23:33.442Z,99.90
2022-10-11T00:26:01.127Z,99.90
2022-10-11T00:28:30.355Z,99.90
2022-10-11T00:30:57.284Z,99.90
2022-10-11T00:33:24.177Z,99.90
2022-10-11T00:35:50.877Z,99.90
2022-10-11T00:38:17.750Z,99.90
2022-10-11T00:40:44.790Z,99.90
2022-10-11T00:43:22.575Z,99.90
2022-10-11T00:45:58.451Z,99.90
2022-10-11T00:48:39.696Z,99.90
2022-10-11T00:51:20.734Z,99.90
2022-10-11T00:53:48.059Z,99.90
2022-10-11T00:56:17.632Z,99.90
2022-10-11T00:58:44.356Z,99.90
2022-10-11T01:01:11.060Z,99.90
2022-10-11T01:03:40.995Z,99.90
2022-10-11T01:06:08.169Z,99.90
2022-10-11T01:08:37.253Z,99.90
2022-10-11T01:11:03.995Z,99.90
2022-10-11T01:13:43.105Z,99.90
2022-10-11T01:16:27.614Z,99.90
2022-10-11T01:19:03.417Z,99.90
2022-10-11T01:21:30.908Z,99.90
2022-10-11T01:24:16.138Z,99.90
2022-10-11T01:26:57.972Z,99.90
2022-10-11T01:29:55.040Z,99.90
2022-10-11T01:32:49.846Z,99.90
2022-10-11T01:35:26.434Z,99.90
2022-10-11T01:38:07.452Z,99.90
2022-10-11T01:40:37.082Z,99.90
2022-10-11T01:43:03.757Z,99.90
2022-10-11T01:45:30.820Z,99.90
2022-10-11T01:48:08.556Z,99.90
2022-10-11T01:50:44.253Z,99.90
2022-10-11T01:53:47.741Z,99.90
2022-10-11T01:56:25.567Z,99.90
2022-10-11T01:59:02.393Z,99.90
2022-10-11T02:02:06.687Z,99.90
2022-10-11T02:04:54.560Z,99.90
2022-10-11T02:07:59.443Z,99.90
2022-10-11T02:10:31.923Z,99.90
2022-10-11T02:13:01.564Z,99.90
2022-10-11T02:15:29.534Z,99.90
2022-10-11T02:17:57.072Z,99.90
2022-10-11T02:20:25.135Z,99.90
2022-10-11T02:22:56.249Z,99.90
2022-10-11T02:25:24.693Z,99.90
2022-10-11T02:27:51.874Z,99.90
2022-10-11T02:30:18.772Z,99.90
2022-10-11T02:32:46.284Z,99.90
2022-10-11T02:35:17.312Z,99.90
2022-10-11T02:38:05.366Z,99.90
2022-10-11T02:40:42.661Z,99.90
2022-10-11T02:43:12.612Z,99.90
2022-10-11T02:45:58.744Z,99.90
2022-10-11T02:48:27.476Z,99.90
2022-10-11T02:50:59.385Z,99.90
2022-10-11T02:53:26.713Z,99.90
2022-10-11T02:55:54.112Z,99.90
2022-10-11T02:58:21.308Z,99.90
2022-10-11T03:00:49.219Z,99.90
2022-10-11T03:03:15.889Z,99.90
2022-10-11T03:05:43.664Z,99.90
2022-10-11T03:08:11.571Z,99.90
2022-10-11T03:10:38.513Z,99.90
2022-10-11T03:13:05.220Z,99.90
2022-10-11T03:15:33.217Z,99.90
2022-10-11T03:17:59.859Z,99.90
2022-10-11T03:20:26.668Z,99.90
2022-10-11T03:22:53.390Z,99.90
2022-10-11T03:25:20.090Z,99.90
2022-10-11T03:27:46.919Z,99.90
2022-10-11T03:30:17.842Z,99.90
2022-10-11T03:32:44.973Z,99.90
2022-10-11T03:35:11.713Z,99.90
2022-10-11T03:37:38.425Z,99.90
2022-10-11T03:40:07.122Z,99.90
2022-10-11T03:42:34.258Z,99.90
2022-10-11T03:45:05.026Z,99.90
2022-10-11T03:47:32.110Z,99.90
2022-10-11T03:50:03.439Z,99.90
2022-10-11T03:52:30.322Z,99.90
2022-10-11T03:54:58.365Z,99.90
2022-10-11T03:57:25.241Z,99.90
2022-10-11T03:59:52.082Z,99.90
2022-10-11T04:02:18.728Z,99.90
2022-10-11T04:04:45.380Z,99.90
2022-10-11T04:07:19.386Z,99.90
2022-10-11T04:09:46.096Z,99.90
2022-10-11T04:12:12.928Z,99.90
2022-10-11T04:14:40.421Z,99.90
2022-10-11T04:17:07.288Z,99.90
2022-10-11T04:19:34.151Z,99.90
2022-10-11T04:22:06.535Z,99.90
2022-10-11T04:24:33.393Z,99.90
2022-10-11T04:27:00.302Z,99.90
2022-10-11T04:29:32.169Z,99.90
2022-10-11T04:34:41.117Z,99.90
2022-10-11T04:37:07.921Z,99.90
2022-10-11T04:39:34.639Z,99.90
2022-10-11T04:42:01.674Z,99.90
2022-10-11T04:44:31.547Z,99.90
2022-10-11T04:46:58.577Z,99.90
2022-10-11T04:49:32.079Z,99.90
2022-10-11T04:52:02.957Z,99.90
2022-10-11T04:54:29.939Z,99.90
2022-10-11T04:56:57.740Z,99.90
2022-10-11T04:59:24.421Z,99.90
2022-10-11T05:02:05.965Z,99.90
2022-10-11T05:04:39.309Z,99.90
2022-10-11T05:07:10.552Z,99.90
2022-10-11T05:09:42.555Z,99.90
2022-10-11T05:12:09.541Z,99.90
2022-10-11T05:14:38.398Z,99.90
2022-10-11T05:17:10.346Z,99.90
2022-10-11T05:19:37.047Z,99.90
2022-10-11T05:22:03.880Z,99.90
2022-10-11T05:24:31.093Z,99.90
2022-10-11T05:27:02.325Z,99.90
2022-10-11T05:29:29.949Z,99.90
2022-10-11T05:31:56.828Z,99.90
2022-10-11T05:34:23.682Z,99.90
2022-10-11T05:36:50.392Z,99.90
2022-10-11T05:39:17.253Z,99.90
2022-10-11T05:41:44.001Z,99.90
2022-10-11T05:44:12.889Z,99.90
2022-10-11T05:46:39.747Z,99.90
2022-10-11T05:49:06.470Z,99.90
2022-10-11T05:51:33.205Z,99.90
2022-10-11T05:53:59.940Z,99.90
2022-10-11T05:56:26.784Z,99.90
2022-10-11T05:58:54.970Z,99.90
2022-10-11T06:01:25.763Z,99.90
2022-10-11T06:03:52.611Z,99.90
2022-10-11T06:06:19.578Z,99.90
2022-10-11T06:08:46.332Z,99.90
2022-10-11T06:11:25.273Z,99.90
2022-10-11T06:13:56.093Z,99.90
2022-10-11T06:16:22.727Z,99.90
2022-10-11T06:18:52.031Z,99.90
2022-10-11T06:21:18.873Z,99.90
2022-10-11T06:23:50.905Z,99.90
2022-10-11T06:26:18.097Z,99.90
2022-10-11T06:28:45.120Z,99.90
2022-10-11T06:31:11.915Z,99.90
2022-10-11T06:33:38.836Z,99.90
2022-10-11T06:36:07.899Z,99.90
2022-10-11T06:38:34.920Z,99.90
2022-10-11T06:41:16.155Z,99.90
2022-10-11T06:43:43.035Z,99.90
2022-10-11T06:46:09.906Z,99.90
2022-10-11T06:48:40.259Z,99.90
2022-10-11T06:51:06.888Z,99.90
2022-10-11T06:53:33.628Z,99.90
2022-10-11T06:56:10.879Z,99.90
2022-10-11T06:58:38.369Z,99.90
2022-10-11T07:01:09.936Z,99.90
2022-10-11T07:03:37.117Z,99.90
2022-10-11T07:06:09.043Z,99.90
2022-10-11T07:08:36.673Z,99.90
2022-10-11T07:11:08.298Z,99.90
2022-10-11T07:13:35.324Z,99.90
2022-10-11T07:16:06.448Z,99.90
2022-10-11T07:18:33.732Z,99.90
2022-10-11T07:21:04.503Z,99.90
2022-10-11T07:23:31.192Z,99.90
2022-10-11T07:25:57.974Z,99.90
2022-10-11T07:28:24.897Z,99.90
2022-10-11T07:30:52.003Z,99.90
2022-10-11T07:33:19.456Z,99.90
2022-10-11T07:35:48.520Z,99.90
2022-10-11T07:38:15.912Z,99.90
2022-10-11T07:40:43.714Z,99.90
2022-10-11T07:43:11.581Z,99.90
2022-10-11T07:45:45.408Z,99.90
2022-10-11T07:48:12.141Z,99.90
2022-10-11T07:50:38.954Z,99.90
2022-10-11T07:53:05.683Z,99.90
2022-10-11T07:55:40.174Z,99.90
2022-10-11T07:58:10.909Z,99.90
2022-10-11T08:00:37.927Z,99.90
2022-10-11T08:03:14.197Z,99.90
2022-10-11T08:05:41.035Z,99.90
2022-10-11T08:08:07.793Z,99.90
2022-10-11T08:10:38.851Z,99.90
2022-10-11T08:13:06.316Z,99.90
2022-10-11T08:15:33.785Z,99.90
2022-10-11T08:18:19.170Z,99.90
2022-10-11T08:20:46.084Z,99.90
2022-10-11T08:23:17.315Z,99.90
2022-10-11T08:25:45.431Z,99.90
2022-10-11T08:28:17.910Z,99.90
2022-10-11T08:30:51.683Z,99.90
2022-10-11T08:33:19.065Z,99.90
2022-10-11T08:35:53.940Z,99.90
2022-10-11T08:38:21.358Z,99.90
2022-10-11T08:40:49.643Z,99.90
2022-10-11T08:43:53.714Z,99.90
2022-10-11T08:46:22.935Z,99.90
2022-10-11T08:48:49.585Z,99.90
2022-10-11T08:51:23.676Z,99.90
2022-10-11T08:54:07.524Z,99.90
2022-10-11T08:57:00.559Z,99.90
2022-10-11T08:59:57.444Z,99.90
2022-10-11T09:02:55.696Z,99.90
2022-10-11T09:05:20.629Z,99.90
2022-10-11T09:08:05.876Z,99.90
2022-10-11T09:10:46.714Z,99.90
2022-10-11T09:13:30.974Z,99.90
2022-10-11T09:16:08.676Z,99.90
2022-10-11T09:18:48.611Z,99.90
2022-10-11T09:21:39.850Z,99.90
2022-10-11T09:24:29.152Z,99.90
2022-10-11T09:27:25.943Z,99.90
2022-10-11T09:30:17.939Z,99.90
2022-10-11T09:32:51.541Z,99.90
2022-10-11T09:35:20.139Z,99.90
2022-10-11T09:38:05.630Z,99.90
2022-10-11T09:40:55.071Z,99.90
2022-10-11T09:43:21.859Z,99.90
2022-10-11T09:45:49.805Z,99.90
2022-10-11T09:48:21.925Z,99.90
2022-10-11T09:50:48.841Z,99.90
2022-10-11T09:53:15.503Z,99.90
2022-10-11T09:55:53.408Z,99.90
2022-10-11T09:58:32.540Z,99.90
2022-10-11T10:01:07.719Z,99.90
2022-10-11T10:03:39.838Z,99.90
2022-10-11T10:06:25.601Z,99.90
2022-10-11T10:08:52.480Z,99.90
2022-10-11T10:11:19.206Z,99.90
2022-10-11T10:13:53.447Z,99.90
2022-10-11T10:16:29.693Z,99.90
2022-10-11T10:19:06.688Z,99.90
2022-10-11T10:21:33.633Z,99.90
2022-10-11T10:24:03.320Z,99.90
2022-10-11T10:26:30.193Z,99.90
2022-10-11T10:28:58.387Z,99.90
2022-10-11T10:31:49.507Z,99.90
2022-10-11T10:34:28.711Z,99.90
2022-10-11T10:36:57.423Z,99.90
2022-10-11T10:39:40.652Z,99.90
2022-10-11T10:42:12.663Z,99.90
2022-10-11T10:44:43.921Z,99.90
2022-10-11T10:47:20.819Z,99.90
2022-10-11T10:49:56.840Z,99.90
2022-10-11T10:52:47.788Z,99.90
2022-10-11T10:55:33.207Z,99.90
2022-10-11T10:58:12.895Z,99.90
2022-10-11T11:00:47.351Z,99.90
2022-10-11T11:03:42.271Z,99.90
2022-10-11T11:06:37.301Z,99.90
2022-10-11T11:09:15.897Z,99.90
2022-10-11T11:11:49.209Z,99.90
2022-10-11T11:14:21.861Z,99.90
2022-10-11T11:17:05.900Z,99.90
2022-10-11T11:19:46.330Z,99.90
2022-10-11T11:22:50.750Z,99.90
2022-10-11T11:25:49.915Z,99.90
2022-10-11T11:28:38.284Z,99.90
2022-10-11T11:31:14.371Z,99.90
2022-10-11T11:33:50.264Z,99.90
2022-10-11T11:36:24.987Z,99.90
2022-10-11T11:38:55.539Z,99.90
2022-10-11T11:41:43.822Z,99.90
2022-10-11T11:44:46.404Z,99.90
2022-10-11T11:47:18.989Z,99.90
2022-10-11T11:49:53.669Z,99.90
2022-10-11T11:52:26.250Z,99.90
2022-10-11T11:55:07.402Z,99.90
2022-10-11T11:58:11.825Z,98.40
2022-10-11T12:00:49.063Z,99.90
2022-10-11T12:03:21.783Z,98.30
2022-10-11T12:06:19.502Z,97.70
2022-10-11T12:09:07.904Z,97.10
2022-10-11T12:11:37.732Z,99.00
2022-10-11T12:14:34.201Z,99.10
2022-10-11T12:17:09.565Z,98.30
2022-10-11T12:19:37.375Z,98.00
2022-10-11T12:22:37.813Z,98.30
2022-10-11T12:25:13.802Z,98.00
2022-10-11T12:28:02.792Z,99.10
2022-10-11T12:30:47.587Z,98.50
2022-10-11T12:33:15.422Z,98.80
2022-10-11T12:36:27.042Z,98.90
2022-10-11T12:39:20.018Z,97.40
2022-10-11T12:41:51.232Z,96.20
2022-10-11T12:44:26.333Z,97.70
2022-10-11T12:46:55.328Z,95.90
2022-10-11T12:49:48.322Z,95.10
2022-10-11T12:52:18.222Z,95.70
2022-10-11T12:55:03.302Z,95.00
2022-10-11T12:58:07.408Z,95.70
2022-10-11T13:00:41.603Z,95.50
2022-10-11T13:03:35.511Z,95.80
2022-10-11T13:06:12.349Z,96.00
2022-10-11T13:08:40.847Z,97.20
2022-10-11T13:11:19.083Z,98.00
2022-10-11T13:14:09.243Z,99.20
2022-10-11T13:17:00.625Z,99.90
2022-10-11T13:19:27.555Z,99.90
2022-10-11T13:21:59.709Z,99.90
2022-10-11T13:24:27.384Z,99.90
2022-10-11T13:26:55.152Z,99.90
2022-10-11T13:29:44.796Z,99.90
2022-10-11T13:32:26.288Z,99.90
2022-10-11T13:37:24.442Z,99.90
2022-10-11T13:39:51.889Z,99.90
2022-10-11T13:42:18.808Z,99.90
2022-10-11T13:44:45.939Z,99.90
2022-10-11T13:47:20.559Z,99.90
2022-10-11T13:49:53.396Z,99.90
2022-10-11T13:52:22.538Z,99.90
2022-10-11T13:55:04.549Z,99.90
2022-10-11T13:57:40.112Z,99.90
2022-10-11T14:00:31.705Z,99.90
2022-10-11T14:03:04.665Z,99.90
2022-10-11T14:05:35.934Z,99.90
2022-10-11T14:08:22.995Z,99.90
2022-10-11T14:10:54.280Z,99.90
2022-10-11T14:13:38.875Z,99.90
2022-10-11T14:16:13.522Z,99.90
2022-10-11T14:18:50.583Z,99.90
2022-10-11T14:21:43.301Z,99.90
2022-10-11T14:24:10.711Z,99.90
2022-10-11T14:26:52.100Z,99.90
2022-10-11T14:29:26.293Z,99.90
2022-10-11T14:31:56.529Z,99.90
2022-10-11T14:34:24.169Z,99.90
2022-10-11T14:36:50.956Z,99.90
2022-10-11T14:39:19.175Z,99.90
2022-10-11T14:41:45.905Z,99.90
2022-10-11T14:44:13.416Z,99.90
2022-10-11T14:46:41.191Z,99.90
2022-10-11T14:56:30.532Z,99.90
2022-10-11T14:59:05.891Z,99.90
2022-10-11T15:01:32.905Z,99.90
2022-10-11T15:04:02.293Z,99.90
2022-10-11T15:06:37.349Z,99.90
2022-10-11T15:09:05.286Z,99.90
2022-10-11T15:11:32.636Z,99.90
2022-10-11T15:14:00.022Z,99.90
2022-10-11T15:16:27.016Z,99.90
2022-10-11T15:19:24.466Z,99.90
2022-10-11T15:21:55.565Z,99.90
2022-10-11T15:24:23.559Z,99.90
2022-10-11T15:26:50.450Z,99.90
2022-10-11T15:29:19.063Z,99.90
2022-10-11T15:31:46.037Z,99.90
2022-10-11T15:34:13.203Z,99.90
2022-10-11T15:36:39.925Z,99.90
2022-10-11T15:39:31.460Z,99.90
2022-10-11T15:41:58.581Z,99.90
2022-10-11T15:44:25.986Z,99.90
2022-10-11T15:46:52.816Z,99.90
2022-10-11T15:49:19.913Z,99.90
2022-10-11T15:51:46.876Z,99.90
2022-10-11T15:54:13.707Z,99.90
2022-10-11T15:56:40.824Z,99.90
2022-10-11T15:59:08.934Z,99.90
2022-10-11T16:01:35.859Z,99.90
2022-10-11T16:04:02.746Z,99.90
2022-10-11T16:06:29.439Z,99.90
2022-10-11T16:08:59.768Z,99.90
2022-10-11T16:11:33.873Z,99.90
2022-10-11T16:14:00.528Z,99.90
2022-10-11T16:16:28.292Z,99.90
2022-10-11T16:18:55.377Z,99.90
2022-10-11T16:21:23.556Z,99.90
2022-10-11T16:23:50.623Z,99.90
2022-10-11T16:26:17.307Z,99.90
2022-10-11T16:28:44.242Z,99.90
2022-10-11T16:31:16.645Z,99.90
2022-10-11T16:33:46.695Z,99.90
2022-10-11T16:36:46.064Z,99.90
2022-10-11T16:39:14.794Z,99.90
2022-10-11T16:41:41.926Z,99.90
2022-10-11T16:44:13.881Z,99.90
2022-10-11T16:46:40.579Z,99.90
2022-10-11T16:49:09.456Z,99.90
2022-10-11T16:51:36.309Z,99.90
2022-10-11T16:54:03.075Z,99.90
2022-10-11T16:56:32.517Z,99.90
2022-10-11T16:59:00.821Z,99.90
2022-10-11T17:01:27.864Z,99.90
2022-10-11T17:03:55.579Z,99.90
2022-10-11T17:06:27.426Z,99.90
2022-10-11T17:09:03.741Z,99.90
2022-10-11T17:11:31.072Z,99.90
2022-10-11T17:13:57.853Z,99.90
2022-10-11T17:16:24.781Z,99.90
2022-10-11T17:18:57.597Z,99.90
2022-10-11T17:21:24.325Z,99.90
2022-10-11T17:23:55.238Z,99.90
2022-10-11T17:26:26.133Z,99.90
2022-10-11T17:28:56.788Z,99.90
2022-10-11T17:31:24.112Z,99.90
2022-10-11T17:33:51.053Z,99.90
2022-10-11T17:36:34.275Z,99.90
2022-10-11T17:39:05.751Z,99.90
2022-10-11T17:41:32.598Z,99.90
2022-10-11T17:43:59.721Z,99.90
2022-10-11T17:46:27.958Z,99.90
2022-10-11T17:48:57.315Z,99.90
2022-10-11T17:51:27.993Z,99.90
2022-10-11T17:53:55.728Z,99.90
2022-10-11T17:56:28.946Z,99.90
2022-10-11T17:58:58.415Z,99.90
2022-10-11T18:01:26.700Z,99.90
2022-10-11T18:04:01.177Z,99.90
2022-10-11T18:06:29.723Z,99.90
2022-10-11T18:08:57.534Z,99.90
2022-10-11T18:11:24.657Z,99.90
2022-10-11T18:13:52.155Z,99.90
2022-10-11T18:16:22.510Z,99.90
2022-10-11T18:18:49.192Z,99.90
2022-10-11T18:21:19.979Z,99.90
2022-10-11T18:23:46.821Z,99.90
2022-10-11T18:26:15.729Z,99.90
2022-10-11T18:28:43.870Z,99.90
2022-10-11T18:31:13.628Z,99.90
2022-10-11T18:33:41.154Z,99.90
2022-10-11T18:36:09.328Z,99.90
2022-10-11T18:38:38.119Z,99.90
2022-10-11T18:41:06.742Z,99.90
2022-10-11T18:43:40.604Z,99.90
2022-10-11T18:46:14.090Z,99.90
2022-10-11T18:48:42.897Z,99.90
2022-10-11T18:51:11.599Z,99.90
2022-10-11T18:53:38.531Z,99.90
2022-10-11T18:56:07.114Z,99.90
2022-10-11T18:58:34.359Z,99.90
2022-10-11T19:01:08.406Z,99.90
2022-10-11T19:03:35.531Z,99.90
2022-10-11T19:06:06.952Z,99.90
2022-10-11T19:08:33.992Z,99.90
2022-10-11T19:11:10.296Z,99.90
2022-10-11T19:13:37.099Z,99.90
2022-10-11T19:16:10.944Z,99.90
2022-10-11T19:18:41.833Z,99.90
2022-10-11T19:21:12.157Z,99.90
2022-10-11T19:23:40.728Z,99.90
2022-10-11T19:26:24.560Z,99.90
2022-10-11T19:29:11.180Z,99.90
2022-10-11T19:31:42.468Z,99.90
2022-10-11T19:34:10.169Z,99.90
2022-10-11T19:36:37.124Z,99.90
2022-10-11T19:39:04.589Z,99.90
2022-10-11T19:41:35.446Z,99.90
2022-10-11T19:44:02.078Z,99.90
2022-10-11T19:49:17.825Z,99.90
2022-10-11T19:51:44.798Z,99.90
2022-10-11T19:54:12.540Z,99.90
2022-10-11T19:56:39.488Z,99.90
2022-10-11T19:59:06.477Z,99.90
2022-10-11T20:01:33.603Z,99.90
2022-10-11T20:04:05.105Z,99.90
2022-10-11T20:06:37.879Z,99.90
2022-10-11T20:09:27.874Z,99.90
2022-10-11T20:11:52.776Z,99.90
2022-10-11T20:14:20.375Z,99.90
2022-10-11T20:16:49.135Z,99.90
2022-10-11T20:19:16.300Z,99.90
2022-10-11T20:21:43.823Z,99.90
2022-10-11T20:24:10.772Z,99.90
2022-10-11T20:26:41.680Z,99.90
2022-10-11T20:29:08.661Z,99.90
2022-10-11T20:31:38.148Z,99.90
2022-10-11T20:34:07.009Z,99.90
2022-10-11T20:36:34.365Z,99.90
2022-10-11T20:39:01.139Z,99.90
2022-10-11T20:41:31.503Z,99.90
2022-10-11T20:43:58.686Z,99.90
2022-10-11T20:46:27.276Z,99.90
2022-10-11T20:49:00.386Z,99.90
2022-10-11T20:51:34.351Z,99.90
2022-10-11T20:54:02.174Z,99.90
2022-10-11T20:56:29.735Z,99.90
2022-10-11T20:58:57.096Z,99.90
2022-10-11T21:01:28.593Z,99.90
2022-10-11T21:03:57.304Z,99.90
2022-10-11T21:06:24.138Z,99.90
2022-10-11T21:08:53.688Z,99.90
2022-10-11T21:11:20.712Z,99.90
2022-10-11T21:13:48.559Z,99.90
2022-10-11T21:16:15.995Z,99.90
2022-10-11T21:18:44.799Z,99.90
2022-10-11T21:21:13.403Z,99.90
2022-10-11T21:23:40.516Z,99.90
2022-10-11T21:26:09.566Z,99.90
2022-10-11T21:28:36.424Z,99.90
2022-10-11T21:31:13.083Z,99.90
2022-10-11T21:33:40.747Z,99.90
2022-10-11T21:36:09.187Z,99.90
2022-10-11T21:38:36.175Z,99.90
2022-10-11T21:41:04.195Z,99.90
2022-10-11T21:43:31.052Z,99.90
2022-10-11T21:46:00.291Z,99.90
2022-10-11T21:48:26.968Z,99.90
2022-10-11T21:50:54.599Z,99.90
2022-10-11T21:53:21.331Z,99.90
2022-10-11T21:55:48.079Z,99.90
2022-10-11T21:58:15.103Z,99.90
2022-10-11T22:00:41.908Z,99.90
2022-10-11T22:03:09.011Z,99.90
2022-10-11T22:05:35.652Z,99.90
2022-10-11T22:08:02.524Z,99.90
2022-10-11T22:10:29.245Z,99.90
2022-10-11T22:12:56.016Z,99.90
2022-10-11T22:15:23.142Z,99.90
2022-10-11T22:17:50.063Z,99.90
2022-10-11T22:20:17.095Z,99.90
2022-10-11T22:22:45.933Z,99.90
2022-10-11T22:25:12.873Z,99.90
2022-10-11T22:27:39.831Z,99.90
2022-10-11T22:30:07.108Z,99.90
2022-10-11T22:32:34.367Z,99.90
2022-10-11T22:35:01.222Z,99.90
2022-10-11T22:37:29.329Z,99.90
2022-10-11T22:39:56.004Z,99.90
2022-10-11T22:42:26.882Z,99.90
2022-10-11T22:44:54.760Z,99.90
2022-10-11T22:47:21.610Z,99.90
2022-10-11T22:49:48.599Z,99.90
2022-10-11T22:52:16.347Z,99.90
2022-10-11T22:54:43.047Z,99.90
2022-10-11T22:57:09.722Z,99.90
2022-10-11T22:59:36.620Z,99.90
2022-10-11T23:02:03.268Z,99.90
2022-10-11T23:04:30.097Z,99.90
2022-10-11T23:07:01.214Z,99.90
2022-10-11T23:09:31.609Z,99.90
2022-10-11T23:11:59.008Z,99.90
2022-10-11T23:14:25.767Z,99.90
2022-10-11T23:16:52.772Z,99.90
2022-10-11T23:19:19.474Z,99.90
2022-10-11T23:21:46.420Z,99.90
2022-10-11T23:24:13.381Z,99.90
2022-10-11T23:26:40.175Z,99.90
2022-10-11T23:29:06.908Z,99.90
2022-10-11T23:31:33.804Z,99.90
2022-10-11T23:34:00.423Z,99.90
2022-10-11T23:36:27.215Z,99.90
2022-10-11T23:38:55.568Z,99.90
2022-10-11T23:41:23.236Z,99.90
2022-10-11T23:43:49.973Z,99.90
2022-10-11T23:46:16.932Z,99.90
2022-10-11T23:48:43.662Z,99.90
2022-10-11T23:51:10.412Z,99.90
2022-10-11T23:53:37.547Z,99.90
2022-10-11T23:56:04.781Z,99.90
2022-10-11T23:58:31.821Z,99.90
